createdAt,value
2022-08-09T00:00:46.062Z,4.40
2022-08-09T00:05:03.099Z,4.70
2022-08-09T00:09:25.090Z,4.30
2022-08-09T00:13:32.760Z,4.30
2022-08-09T00:18:05.171Z,4.20
2022-08-09T00:22:08.004Z,3.70
2022-08-09T00:26:29.882Z,3.90
2022-08-09T00:30:42.304Z,4.50
2022-08-09T00:34:52.137Z,4.70
2022-08-09T00:39:00.727Z,4.20
2022-08-09T00:44:15.772Z,3.90
2022-08-09T00:47:41.418Z,3.80
2022-08-09T00:51:54.532Z,3.90
2022-08-09T00:56:09.651Z,4.20
2022-08-09T01:00:21.952Z,4.30
2022-08-09T01:04:34.148Z,4.70
2022-08-09T01:08:51.600Z,4.60
2022-08-09T01:13:07.502Z,4.60
2022-08-09T01:17:20.425Z,4.60
2022-08-09T01:21:50.830Z,5.10
2022-08-09T01:26:12.408Z,5.30
2022-08-09T01:30:33.499Z,5.50
2022-08-09T01:34:52.267Z,5.20
2022-08-09T01:39:02.132Z,5.00
2022-08-09T01:43:10.111Z,4.20
2022-08-09T01:47:18.603Z,4.40
2022-08-09T01:51:27.153Z,4.30
2022-08-09T01:55:40.697Z,3.80
2022-08-09T01:59:52.561Z,4.10
2022-08-09T02:04:01.821Z,4.50
2022-08-09T02:08:39.692Z,4.40
2022-08-09T02:12:41.801Z,4.80
2022-08-09T02:16:59.145Z,4.60
2022-08-09T02:21:22.992Z,4.60
2022-08-09T02:25:33.113Z,4.40
2022-08-09T02:29:53.468Z,4.20
2022-08-09T02:34:13.264Z,4.00
2022-08-09T02:38:28.703Z,4.20
2022-08-09T02:42:40.976Z,4.10
2022-08-09T02:46:52.250Z,4.10
2022-08-09T02:51:02.424Z,4.20
2022-08-09T02:55:20.718Z,4.40
2022-08-09T02:59:36.351Z,4.60
2022-08-09T03:04:17.315Z,4.60
2022-08-09T03:08:16.363Z,4.50
2022-08-09T03:12:25.603Z,4.30
2022-08-09T03:16:33.606Z,4.60
2022-08-09T03:20:45.417Z,4.40
2022-08-09T03:25:06.284Z,4.10
2022-08-09T03:29:23.082Z,4.90
2022-08-09T03:33:54.457Z,5.80
2022-08-09T03:37:59.932Z,7.20
2022-08-09T03:42:08.533Z,6.80
2022-08-09T03:46:20.712Z,5.40
2022-08-09T03:50:36.472Z,5.10
2022-08-09T03:54:44.413Z,5.10
2022-08-09T03:58:52.466Z,4.80
2022-08-09T04:03:04.129Z,5.00
2022-08-09T04:07:14.808Z,4.60
2022-08-09T04:11:25.030Z,4.70
2022-08-09T04:15:52.095Z,4.50
2022-08-09T04:20:02.678Z,5.10
2022-08-09T04:24:11.001Z,5.00
2022-08-09T04:28:31.433Z,5.00
2022-08-09T04:32:46.870Z,5.10
2022-08-09T04:36:54.945Z,5.20
2022-08-09T04:41:02.277Z,6.20
2022-08-09T04:45:12.467Z,5.40
2022-08-09T04:49:30.127Z,5.80
2022-08-09T04:53:53.830Z,6.10
2022-08-09T04:58:09.616Z,6.40
2022-08-09T05:02:17.558Z,6.20
2022-08-09T05:06:27.922Z,6.50
2022-08-09T05:10:36.846Z,6.70
2022-08-09T05:14:44.924Z,6.10
2022-08-09T05:18:59.212Z,6.10
2022-08-09T05:23:54.879Z,13.00
2022-08-09T05:27:34.982Z,6.10
2022-08-09T05:31:57.566Z,6.60
2022-08-09T05:36:07.155Z,6.00
2022-08-09T05:40:16.291Z,6.00
2022-08-09T05:44:29.074Z,6.30
2022-08-09T05:48:42.088Z,6.50
2022-08-09T05:52:53.366Z,6.20
2022-08-09T05:57:01.816Z,6.10
2022-08-09T06:01:15.999Z,6.60
2022-08-09T06:05:50.480Z,6.20
2022-08-09T06:10:02.000Z,6.30
2022-08-09T06:14:11.160Z,6.00
2022-08-09T06:18:18.952Z,6.20
2022-08-09T06:22:28.974Z,6.30
2022-08-09T06:26:43.698Z,5.60
2022-08-09T06:30:53.327Z,5.50
2022-08-09T06:35:01.215Z,5.40
2022-08-09T06:39:14.780Z,4.50
2022-08-09T06:43:23.415Z,4.90
2022-08-09T06:47:39.846Z,4.50
2022-08-09T06:51:49.368Z,5.50
2022-08-09T06:55:59.339Z,5.20
2022-08-09T07:00:55.908Z,4.70
2022-08-09T07:04:36.451Z,3.30
2022-08-09T07:08:43.963Z,4.60
2022-08-09T07:12:57.063Z,4.50
2022-08-09T07:17:05.876Z,3.60
2022-08-09T07:21:15.817Z,4.10
2022-08-09T07:25:23.248Z,3.30
2022-08-09T07:29:38.044Z,3.50
2022-08-09T07:33:53.024Z,3.40
2022-08-09T07:38:03.030Z,3.80
2022-08-09T07:42:11.660Z,3.60
2022-08-09T07:46:19.553Z,3.50
2022-08-09T07:50:32.990Z,3.30
2022-08-09T07:54:51.424Z,3.40
2022-08-09T07:59:00.213Z,3.10
2022-08-09T08:03:11.454Z,2.90
2022-08-09T08:08:43.914Z,3.10
2022-08-09T08:12:11.615Z,3.20
2022-08-09T08:16:31.396Z,2.90
2022-08-09T08:20:42.903Z,3.10
2022-08-09T08:24:55.912Z,3.80
2022-08-09T08:29:05.038Z,2.90
2022-08-09T08:33:24.131Z,2.50
2022-08-09T08:37:41.154Z,2.50
2022-08-09T08:42:00.787Z,2.50
2022-08-09T08:46:33.052Z,2.60
2022-08-09T08:50:38.514Z,2.50
2022-08-09T08:54:45.947Z,2.80
2022-08-09T08:58:56.468Z,2.60
2022-08-09T09:03:11.511Z,2.30
2022-08-09T09:07:22.112Z,2.30
2022-08-09T09:11:33.861Z,2.50
2022-08-09T09:15:49.173Z,2.40
2022-08-09T09:19:58.505Z,2.20
2022-08-09T09:24:21.403Z,2.10
2022-08-09T09:29:01.689Z,2.50
2022-08-09T09:33:17.238Z,2.10
2022-08-09T09:37:32.510Z,2.10
2022-08-09T09:41:48.971Z,2.10
2022-08-09T09:46:39.584Z,1.70
2022-08-09T09:50:49.568Z,1.60
2022-08-09T09:55:16.641Z,1.80
2022-08-09T09:59:37.866Z,1.80
2022-08-09T10:03:57.184Z,1.50
2022-08-09T10:08:27.364Z,1.70
2022-08-09T10:12:43.607Z,1.60
2022-08-09T10:17:11.354Z,1.40
2022-08-09T10:21:26.061Z,1.50
2022-08-09T10:26:06.921Z,1.40
2022-08-09T10:30:43.910Z,1.80
2022-08-09T10:34:35.784Z,1.70
2022-08-09T10:38:57.257Z,1.60
2022-08-09T10:43:11.212Z,2.00
2022-08-09T10:48:19.203Z,1.70
2022-08-09T10:52:13.571Z,1.80
2022-08-09T10:56:31.014Z,1.80
2022-08-09T11:03:01.664Z,2.00
2022-08-09T11:05:24.860Z,2.10
2022-08-09T11:09:53.875Z,2.40
2022-08-09T11:14:35.181Z,2.20
2022-08-09T11:18:48.452Z,2.00
2022-08-09T11:23:07.145Z,1.90
2022-08-09T11:28:03.999Z,2.40
2022-08-09T11:32:02.391Z,2.10
2022-08-09T11:36:10.507Z,2.30
2022-08-09T11:40:37.479Z,2.00
2022-08-09T11:44:49.783Z,2.20
2022-08-09T11:48:58.791Z,2.20
2022-08-09T11:53:57.647Z,2.40
2022-08-09T11:58:00.988Z,2.10
2022-08-09T12:02:37.593Z,2.00
2022-08-09T12:06:55.974Z,1.80
2022-08-09T12:11:05.133Z,1.60
2022-08-09T12:15:50.420Z,1.90
2022-08-09T12:19:59.562Z,2.00
2022-08-09T12:24:10.379Z,1.70
2022-08-09T12:29:09.667Z,2.30
2022-08-09T12:32:48.721Z,1.80
2022-08-09T12:37:21.778Z,1.80
2022-08-09T12:41:39.035Z,2.20
2022-08-09T12:45:59.876Z,1.90
2022-08-09T12:50:19.917Z,1.90
2022-08-09T12:54:31.213Z,2.10
2022-08-09T12:58:42.682Z,2.10
2022-08-09T13:02:57.331Z,1.80
2022-08-09T13:07:16.787Z,1.90
2022-08-09T13:11:32.152Z,2.30
2022-08-09T13:15:53.964Z,2.00
2022-08-09T13:20:14.085Z,2.30
2022-08-09T13:24:48.423Z,2.10
2022-08-09T13:29:09.461Z,2.30
2022-08-09T13:33:24.770Z,2.20
2022-08-09T13:37:53.426Z,2.00
2022-08-09T13:42:05.509Z,2.20
2022-08-09T13:47:15.217Z,2.40
2022-08-09T13:50:48.258Z,2.20
2022-08-09T13:55:00.682Z,2.10
2022-08-09T13:59:13.132Z,2.20
2022-08-09T14:04:03.610Z,2.20
2022-08-09T14:07:49.591Z,2.10
2022-08-09T14:12:01.036Z,2.20
2022-08-09T14:16:16.347Z,2.10
2022-08-09T14:20:29.012Z,1.90
2022-08-09T14:24:36.893Z,2.30
2022-08-09T14:28:57.334Z,2.00
2022-08-09T14:33:11.455Z,2.10
2022-08-09T14:37:20.422Z,3.60
2022-08-09T14:41:40.026Z,2.00
2022-08-09T14:46:51.421Z,2.60
2022-08-09T14:50:17.409Z,2.50
2022-08-09T14:54:27.537Z,2.10
2022-08-09T14:58:43.734Z,2.40
2022-08-09T15:02:52.243Z,2.40
2022-08-09T15:06:59.376Z,2.30
2022-08-09T15:11:07.800Z,2.40
2022-08-09T15:15:15.418Z,2.10
2022-08-09T15:19:26.228Z,2.30
2022-08-09T15:24:03.599Z,2.30
2022-08-09T15:28:02.168Z,2.40
2022-08-09T15:32:39.089Z,2.20
2022-08-09T15:36:38.577Z,2.40
2022-08-09T15:40:56.686Z,2.40
2022-08-09T15:45:05.359Z,2.40
2022-08-09T15:49:22.732Z,2.00
2022-08-09T15:54:05.691Z,2.60
2022-08-09T15:58:00.196Z,2.40
2022-08-09T16:02:09.365Z,2.30
2022-08-09T16:06:32.556Z,2.20
2022-08-09T16:10:56.257Z,2.40
2022-08-09T16:15:05.395Z,2.20
2022-08-09T16:19:36.871Z,2.30
2022-08-09T16:23:58.629Z,2.10
2022-08-09T16:28:06.734Z,2.60
2022-08-09T16:32:33.551Z,2.30
2022-08-09T16:36:41.714Z,2.30
2022-08-09T16:40:48.892Z,2.20
2022-08-09T16:44:56.600Z,2.40
2022-08-09T16:49:18.688Z,2.10
2022-08-09T16:53:33.816Z,2.10
2022-08-09T16:58:08.667Z,2.10
2022-08-09T17:02:14.006Z,2.20
2022-08-09T17:06:31.248Z,2.40
2022-08-09T17:10:40.958Z,2.30
2022-08-09T17:14:54.862Z,2.30
2022-08-09T17:19:05.488Z,2.10
2022-08-09T17:23:14.722Z,2.50
2022-08-09T17:27:22.496Z,3.30
2022-08-09T17:31:30.044Z,3.80
2022-08-09T17:35:46.689Z,4.20
2022-08-09T17:39:56.366Z,4.60
2022-08-09T17:44:42.209Z,4.30
2022-08-09T17:48:31.377Z,3.80
2022-08-09T17:52:38.971Z,3.10
2022-08-09T17:56:47.659Z,2.50
2022-08-09T18:00:56.438Z,2.40
2022-08-09T18:05:04.822Z,2.30
2022-08-09T18:09:12.944Z,2.30
2022-08-09T18:13:40.067Z,2.40
2022-08-09T18:18:03.997Z,2.50
2022-08-09T18:22:16.861Z,2.40
2022-08-09T18:26:24.914Z,2.10
2022-08-09T18:30:35.117Z,2.30
2022-08-09T18:34:50.374Z,2.40
2022-08-09T18:39:02.765Z,2.50
2022-08-09T18:43:11.050Z,3.00
2022-08-09T18:47:23.827Z,3.00
2022-08-09T18:51:38.402Z,3.00
2022-08-09T18:56:01.056Z,2.90
2022-08-09T19:00:19.202Z,2.50
2022-08-09T19:04:35.250Z,2.40
2022-08-09T19:08:54.872Z,2.20
2022-08-09T19:13:13.616Z,2.10
2022-08-09T19:17:31.315Z,2.20
2022-08-09T19:22:04.302Z,2.20
2022-08-09T19:26:13.877Z,2.30
2022-08-09T19:30:28.822Z,2.60
2022-08-09T19:34:43.607Z,3.50
2022-08-09T19:38:52.073Z,2.90
2022-08-09T19:42:59.947Z,2.30
2022-08-09T19:47:11.078Z,2.80
2022-08-09T19:51:18.868Z,2.90
2022-08-09T19:55:53.039Z,2.50
2022-08-09T19:59:59.365Z,2.50
2022-08-09T20:04:25.090Z,2.30
2022-08-09T20:08:37.406Z,2.80
2022-08-09T20:12:46.779Z,2.80
2022-08-09T20:16:57.172Z,2.40
2022-08-09T20:21:08.557Z,2.70
2022-08-09T20:25:22.866Z,2.60
2022-08-09T20:29:37.357Z,2.80
2022-08-09T20:33:45.827Z,2.60
2022-08-09T20:38:21.119Z,2.80
2022-08-09T20:42:21.474Z,3.10
2022-08-09T20:46:42.452Z,3.10
2022-08-09T20:50:55.784Z,2.80
2022-08-09T20:55:08.786Z,3.00
2022-08-09T20:59:25.014Z,3.00
2022-08-09T21:04:07.952Z,2.40
2022-08-09T21:08:14.693Z,3.30
2022-08-09T21:12:22.211Z,3.60
2022-08-09T21:16:30.571Z,3.20
2022-08-09T21:20:39.412Z,3.20
2022-08-09T21:25:04.420Z,3.10
2022-08-09T21:29:14.530Z,2.90
2022-08-09T21:33:36.118Z,2.80
2022-08-09T21:37:58.830Z,2.80
2022-08-09T21:42:10.127Z,3.00
2022-08-09T21:46:19.363Z,2.90
2022-08-09T21:50:38.519Z,2.90
2022-08-09T21:54:50.536Z,2.70
2022-08-09T21:59:01.136Z,3.00
2022-08-09T22:03:19.173Z,3.40
2022-08-09T22:07:41.522Z,4.80
2022-08-09T22:12:18.079Z,2.90
2022-08-09T22:16:24.970Z,3.40
2022-08-09T22:20:32.536Z,2.80
2022-08-09T22:24:40.408Z,2.60
2022-08-09T22:29:09.998Z,3.00
2022-08-09T22:33:18.054Z,2.90
2022-08-09T22:37:29.233Z,2.90
2022-08-09T22:41:48.408Z,2.70
2022-08-09T22:48:12.118Z,2.70
2022-08-09T22:50:23.942Z,3.00
2022-08-09T22:54:32.830Z,2.90
2022-08-09T22:58:40.353Z,3.10
2022-08-09T23:02:50.183Z,3.00
2022-08-09T23:07:16.431Z,2.90
2022-08-09T23:11:24.554Z,3.00
2022-08-09T23:15:32.440Z,2.90
2022-08-09T23:20:06.471Z,3.10
2022-08-09T23:24:08.064Z,2.90
2022-08-09T23:28:16.259Z,3.20
2022-08-09T23:32:23.932Z,2.90
2022-08-09T23:36:31.680Z,2.90
2022-08-09T23:40:39.295Z,3.10
2022-08-09T23:44:48.651Z,3.10
2022-08-09T23:48:57.086Z,3.70
2022-08-09T23:53:04.848Z,3.50
2022-08-09T23:57:13.244Z,3.20
